sensor_id;sensor_type;location;lat;lon;timestamp;P1;durP1;ratioP1;P2;durP2;ratioP2
82005;SDS011;71529;47.484;19.064;2023-12-20T00:02:17;34.33;;;17.77;;
82005;SDS011;71529;47.484;19.064;2023-12-20T00:04:46;33.43;;;18.17;;
82005;SDS011;71529;47.484;19.064;2023-12-20T00:07:14;37.20;;;18.87;;
82005;SDS011;71529;47.484;19.064;2023-12-20T00:09:43;33.50;;;17.23;;
82005;SDS011;71529;47.484;19.064;2023-12-20T00:12:12;41.13;;;18.97;;
82005;SDS011;71529;47.484;19.064;2023-12-20T00:14:40;32.50;;;18.47;;
82005;SDS011;71529;47.484;19.064;2023-12-20T00:17:08;38.40;;;19.83;;
82005;SDS011;71529;47.484;19.064;2023-12-20T00:19:37;33.00;;;18.47;;
82005;SDS011;71529;47.484;19.064;2023-12-20T00:22:05;35.70;;;18.43;;
82005;SDS011;71529;47.484;19.064;2023-12-20T00:24:33;31.67;;;18.30;;
82005;SDS011;71529;47.484;19.064;2023-12-20T00:27:02;36.23;;;17.97;;
82005;SDS011;71529;47.484;19.064;2023-12-20T00:29:31;36.23;;;18.13;;
82005;SDS011;71529;47.484;19.064;2023-12-20T00:32:00;42.20;;;19.30;;
82005;SDS011;71529;47.484;19.064;2023-12-20T00:34:28;44.20;;;21.40;;
82005;SDS011;71529;47.484;19.064;2023-12-20T00:36:56;41.30;;;20.30;;
82005;SDS011;71529;47.484;19.064;2023-12-20T00:39:25;33.92;;;18.77;;
82005;SDS011;71529;47.484;19.064;2023-12-20T00:41:53;33.33;;;18.30;;
82005;SDS011;71529;47.484;19.064;2023-12-20T00:44:21;35.00;;;17.47;;
82005;SDS011;71529;47.484;19.064;2023-12-20T00:46:51;37.23;;;18.00;;
82005;SDS011;71529;47.484;19.064;2023-12-20T00:49:19;36.23;;;18.40;;
82005;SDS011;71529;47.484;19.064;2023-12-20T00:51:47;39.27;;;18.67;;
82005;SDS011;71529;47.484;19.064;2023-12-20T00:54:17;36.33;;;17.60;;
82005;SDS011;71529;47.484;19.064;2023-12-20T00:56:45;34.47;;;18.60;;
82005;SDS011;71529;47.484;19.064;2023-12-20T00:59:13;33.63;;;18.20;;
82005;SDS011;71529;47.484;19.064;2023-12-20T01:01:42;35.53;;;17.60;;
82005;SDS011;71529;47.484;19.064;2023-12-20T01:04:12;41.20;;;16.90;;
82005;SDS011;71529;47.484;19.064;2023-12-20T01:06:40;39.50;;;17.47;;
82005;SDS011;71529;47.484;19.064;2023-12-20T01:09:09;39.73;;;19.93;;
82005;SDS011;71529;47.484;19.064;2023-12-20T01:11:37;34.95;;;17.77;;
82005;SDS011;71529;47.484;19.064;2023-12-20T01:14:05;32.63;;;16.67;;
82005;SDS011;71529;47.484;19.064;2023-12-20T01:16:33;37.73;;;18.03;;
82005;SDS011;71529;47.484;19.064;2023-12-20T01:19:01;35.07;;;17.53;;
82005;SDS011;71529;47.484;19.064;2023-12-20T01:21:31;33.10;;;17.73;;
82005;SDS011;71529;47.484;19.064;2023-12-20T01:24:00;36.17;;;17.17;;
82005;SDS011;71529;47.484;19.064;2023-12-20T01:26:28;32.83;;;18.70;;
82005;SDS011;71529;47.484;19.064;2023-12-20T01:28:56;42.63;;;18.90;;
82005;SDS011;71529;47.484;19.064;2023-12-20T01:31:24;40.37;;;17.90;;
82005;SDS011;71529;47.484;19.064;2023-12-20T01:33:54;40.60;;;19.17;;
82005;SDS011;71529;47.484;19.064;2023-12-20T01:36:22;34.37;;;17.37;;
82005;SDS011;71529;47.484;19.064;2023-12-20T01:38:52;37.10;;;17.97;;
82005;SDS011;71529;47.484;19.064;2023-12-20T01:41:20;38.53;;;18.77;;
82005;SDS011;71529;47.484;19.064;2023-12-20T01:43:49;40.03;;;19.00;;
82005;SDS011;71529;47.484;19.064;2023-12-20T01:46:18;37.60;;;18.33;;
82005;SDS011;71529;47.484;19.064;2023-12-20T01:48:48;44.00;;;18.83;;
82005;SDS011;71529;47.484;19.064;2023-12-20T01:51:16;39.07;;;19.43;;
82005;SDS011;71529;47.484;19.064;2023-12-20T01:53:45;35.93;;;17.13;;
82005;SDS011;71529;47.484;19.064;2023-12-20T01:56:16;34.80;;;18.03;;
82005;SDS011;71529;47.484;19.064;2023-12-20T01:58:45;31.80;;;16.13;;
82005;SDS011;71529;47.484;19.064;2023-12-20T02:01:14;33.63;;;17.50;;
82005;SDS011;71529;47.484;19.064;2023-12-20T02:03:43;35.80;;;18.53;;
82005;SDS011;71529;47.484;19.064;2023-12-20T02:06:13;36.03;;;18.67;;
82005;SDS011;71529;47.484;19.064;2023-12-20T02:08:41;37.17;;;18.00;;
82005;SDS011;71529;47.484;19.064;2023-12-20T02:11:10;33.50;;;16.57;;
82005;SDS011;71529;47.484;19.064;2023-12-20T02:13:39;34.40;;;16.83;;
82005;SDS011;71529;47.484;19.064;2023-12-20T02:16:07;38.70;;;18.93;;
82005;SDS011;71529;47.484;19.064;2023-12-20T02:18:36;36.00;;;17.87;;
82005;SDS011;71529;47.484;19.064;2023-12-20T02:21:04;35.00;;;17.10;;
82005;SDS011;71529;47.484;19.064;2023-12-20T02:23:34;33.30;;;17.57;;
82005;SDS011;71529;47.484;19.064;2023-12-20T02:26:02;42.63;;;19.43;;
82005;SDS011;71529;47.484;19.064;2023-12-20T02:28:33;36.70;;;17.67;;
82005;SDS011;71529;47.484;19.064;2023-12-20T02:31:02;40.67;;;18.60;;
82005;SDS011;71529;47.484;19.064;2023-12-20T02:33:31;39.67;;;18.63;;
82005;SDS011;71529;47.484;19.064;2023-12-20T02:35:59;45.27;;;19.33;;
82005;SDS011;71529;47.484;19.064;2023-12-20T02:38:27;40.05;;;19.05;;
82005;SDS011;71529;47.484;19.064;2023-12-20T02:40:57;37.77;;;18.70;;
82005;SDS011;71529;47.484;19.064;2023-12-20T02:43:25;35.10;;;18.20;;
82005;SDS011;71529;47.484;19.064;2023-12-20T02:45:53;39.33;;;18.92;;
82005;SDS011;71529;47.484;19.064;2023-12-20T02:48:22;41.90;;;18.63;;
82005;SDS011;71529;47.484;19.064;2023-12-20T02:50:50;42.07;;;20.23;;
82005;SDS011;71529;47.484;19.064;2023-12-20T02:53:19;41.47;;;20.37;;
82005;SDS011;71529;47.484;19.064;2023-12-20T02:55:47;37.47;;;18.70;;
82005;SDS011;71529;47.484;19.064;2023-12-20T02:58:17;42.47;;;19.07;;
82005;SDS011;71529;47.484;19.064;2023-12-20T03:00:45;44.93;;;22.13;;
82005;SDS011;71529;47.484;19.064;2023-12-20T03:03:14;41.27;;;19.83;;
82005;SDS011;71529;47.484;19.064;2023-12-20T03:05:42;43.87;;;19.70;;
82005;SDS011;71529;47.484;19.064;2023-12-20T03:08:11;43.90;;;19.90;;
82005;SDS011;71529;47.484;19.064;2023-12-20T03:10:39;43.73;;;19.37;;
82005;SDS011;71529;47.484;19.064;2023-12-20T03:13:07;48.37;;;21.57;;
82005;SDS011;71529;47.484;19.064;2023-12-20T03:15:37;46.50;;;18.75;;
82005;SDS011;71529;47.484;19.064;2023-12-20T03:18:06;45.23;;;20.87;;
82005;SDS011;71529;47.484;19.064;2023-12-20T03:20:34;40.57;;;20.40;;
82005;SDS011;71529;47.484;19.064;2023-12-20T03:23:02;38.83;;;19.40;;
82005;SDS011;71529;47.484;19.064;2023-12-20T03:25:31;48.80;;;21.43;;
82005;SDS011;71529;47.484;19.064;2023-12-20T03:28:00;52.33;;;21.13;;
82005;SDS011;71529;47.484;19.064;2023-12-20T03:30:28;44.53;;;20.47;;
82005;SDS011;71529;47.484;19.064;2023-12-20T03:32:58;50.23;;;21.47;;
82005;SDS011;71529;47.484;19.064;2023-12-20T03:35:26;44.70;;;21.10;;
82005;SDS011;71529;47.484;19.064;2023-12-20T03:37:54;46.63;;;20.90;;
82005;SDS011;71529;47.484;19.064;2023-12-20T03:40:23;51.77;;;21.37;;
82005;SDS011;71529;47.484;19.064;2023-12-20T03:42:51;50.97;;;19.60;;
82005;SDS011;71529;47.484;19.064;2023-12-20T03:45:20;45.03;;;20.57;;
82005;SDS011;71529;47.484;19.064;2023-12-20T03:47:48;38.90;;;19.00;;
82005;SDS011;71529;47.484;19.064;2023-12-20T03:50:18;48.40;;;20.23;;
82005;SDS011;71529;47.484;19.064;2023-12-20T03:52:47;44.03;;;20.25;;
82005;SDS011;71529;47.484;19.064;2023-12-20T03:55:15;40.50;;;20.27;;
82005;SDS011;71529;47.484;19.064;2023-12-20T03:57:44;46.90;;;22.15;;
82005;SDS011;71529;47.484;19.064;2023-12-20T04:00:12;50.05;;;22.70;;
82005;SDS011;71529;47.484;19.064;2023-12-20T04:02:41;42.77;;;19.93;;
82005;SDS011;71529;47.484;19.064;2023-12-20T04:05:10;46.17;;;20.42;;
82005;SDS011;71529;47.484;19.064;2023-12-20T04:07:40;41.42;;;19.80;;
82005;SDS011;71529;47.484;19.064;2023-12-20T04:10:09;49.10;;;19.25;;
82005;SDS011;71529;47.484;19.064;2023-12-20T04:12:37;43.05;;;18.33;;
82005;SDS011;71529;47.484;19.064;2023-12-20T04:15:05;37.40;;;18.77;;
82005;SDS011;71529;47.484;19.064;2023-12-20T04:17:36;42.47;;;20.17;;
82005;SDS011;71529;47.484;19.064;2023-12-20T04:20:05;47.05;;;22.73;;
82005;SDS011;71529;47.484;19.064;2023-12-20T04:22:34;42.47;;;20.53;;
82005;SDS011;71529;47.484;19.064;2023-12-20T04:25:04;48.28;;;19.90;;
82005;SDS011;71529;47.484;19.064;2023-12-20T04:27:33;37.45;;;18.65;;
82005;SDS011;71529;47.484;19.064;2023-12-20T04:30:02;40.90;;;19.67;;
82005;SDS011;71529;47.484;19.064;2023-12-20T04:32:30;39.30;;;19.23;;
82005;SDS011;71529;47.484;19.064;2023-12-20T04:34:59;40.25;;;19.75;;
82005;SDS011;71529;47.484;19.064;2023-12-20T04:37:27;39.77;;;19.70;;
82005;SDS011;71529;47.484;19.064;2023-12-20T04:39:55;45.20;;;19.90;;
82005;SDS011;71529;47.484;19.064;2023-12-20T04:42:25;50.03;;;22.77;;
82005;SDS011;71529;47.484;19.064;2023-12-20T04:44:53;43.80;;;18.93;;
82005;SDS011;71529;47.484;19.064;2023-12-20T04:47:22;42.27;;;19.57;;
82005;SDS011;71529;47.484;19.064;2023-12-20T04:49:50;46.47;;;20.10;;
82005;SDS011;71529;47.484;19.064;2023-12-20T04:52:18;42.90;;;19.47;;
82005;SDS011;71529;47.484;19.064;2023-12-20T04:54:47;37.28;;;19.27;;
82005;SDS011;71529;47.484;19.064;2023-12-20T04:57:15;38.80;;;18.97;;
82005;SDS011;71529;47.484;19.064;2023-12-20T04:59:45;39.90;;;20.00;;
82005;SDS011;71529;47.484;19.064;2023-12-20T05:02:13;41.37;;;19.67;;
82005;SDS011;71529;47.484;19.064;2023-12-20T05:04:41;30.17;;;17.43;;
82005;SDS011;71529;47.484;19.064;2023-12-20T05:07:10;37.15;;;19.00;;
82005;SDS011;71529;47.484;19.064;2023-12-20T05:09:38;38.55;;;19.48;;
82005;SDS011;71529;47.484;19.064;2023-12-20T05:12:06;37.57;;;18.47;;
82005;SDS011;71529;47.484;19.064;2023-12-20T05:14:35;40.60;;;19.43;;
82005;SDS011;71529;47.484;19.064;2023-12-20T05:17:05;41.85;;;19.55;;
82005;SDS011;71529;47.484;19.064;2023-12-20T05:19:33;39.77;;;19.80;;
82005;SDS011;71529;47.484;19.064;2023-12-20T05:22:02;37.88;;;18.55;;
82005;SDS011;71529;47.484;19.064;2023-12-20T05:24:31;41.93;;;20.10;;
82005;SDS011;71529;47.484;19.064;2023-12-20T05:26:59;39.43;;;19.37;;
82005;SDS011;71529;47.484;19.064;2023-12-20T05:29:28;39.58;;;19.60;;
82005;SDS011;71529;47.484;19.064;2023-12-20T05:31:57;38.67;;;19.47;;
82005;SDS011;71529;47.484;19.064;2023-12-20T05:34:27;38.30;;;19.60;;
82005;SDS011;71529;47.484;19.064;2023-12-20T05:36:56;39.00;;;20.80;;
82005;SDS011;71529;47.484;19.064;2023-12-20T05:39:25;41.63;;;20.97;;
82005;SDS011;71529;47.484;19.064;2023-12-20T05:41:53;44.05;;;20.30;;
82005;SDS011;71529;47.484;19.064;2023-12-20T05:44:21;41.50;;;20.03;;
82005;SDS011;71529;47.484;19.064;2023-12-20T05:46:50;39.10;;;20.43;;
82005;SDS011;71529;47.484;19.064;2023-12-20T05:49:18;41.27;;;20.17;;
82005;SDS011;71529;47.484;19.064;2023-12-20T05:51:48;38.80;;;19.30;;
82005;SDS011;71529;47.484;19.064;2023-12-20T05:54:18;37.27;;;20.20;;
82005;SDS011;71529;47.484;19.064;2023-12-20T05:56:46;36.08;;;17.90;;
82005;SDS011;71529;47.484;19.064;2023-12-20T05:59:15;40.17;;;19.97;;
82005;SDS011;71529;47.484;19.064;2023-12-20T06:01:43;35.90;;;19.30;;
82005;SDS011;71529;47.484;19.064;2023-12-20T06:04:11;34.87;;;18.33;;
82005;SDS011;71529;47.484;19.064;2023-12-20T06:06:40;39.50;;;20.97;;
82005;SDS011;71529;47.484;19.064;2023-12-20T06:09:11;38.33;;;20.25;;
82005;SDS011;71529;47.484;19.064;2023-12-20T06:11:39;38.47;;;20.17;;
82005;SDS011;71529;47.484;19.064;2023-12-20T06:14:07;36.25;;;19.98;;
82005;SDS011;71529;47.484;19.064;2023-12-20T06:16:35;43.73;;;21.07;;
82005;SDS011;71529;47.484;19.064;2023-12-20T06:19:03;45.13;;;21.10;;
82005;SDS011;71529;47.484;19.064;2023-12-20T06:21:32;45.55;;;21.83;;
82005;SDS011;71529;47.484;19.064;2023-12-20T06:24:01;43.55;;;21.88;;
82005;SDS011;71529;47.484;19.064;2023-12-20T06:26:31;49.47;;;22.52;;
82005;SDS011;71529;47.484;19.064;2023-12-20T06:28:59;48.33;;;21.48;;
82005;SDS011;71529;47.484;19.064;2023-12-20T06:31:27;47.72;;;20.17;;
82005;SDS011;71529;47.484;19.064;2023-12-20T06:33:56;48.50;;;23.33;;
82005;SDS011;71529;47.484;19.064;2023-12-20T06:36:26;46.27;;;21.83;;
82005;SDS011;71529;47.484;19.064;2023-12-20T06:38:55;55.05;;;24.67;;
82005;SDS011;71529;47.484;19.064;2023-12-20T06:41:23;49.17;;;22.83;;
82005;SDS011;71529;47.484;19.064;2023-12-20T06:43:53;56.67;;;23.53;;
82005;SDS011;71529;47.484;19.064;2023-12-20T06:46:21;51.67;;;24.27;;
82005;SDS011;71529;47.484;19.064;2023-12-20T06:48:49;49.00;;;21.77;;
82005;SDS011;71529;47.484;19.064;2023-12-20T06:51:18;54.80;;;24.50;;
82005;SDS011;71529;47.484;19.064;2023-12-20T06:53:47;51.03;;;23.40;;
82005;SDS011;71529;47.484;19.064;2023-12-20T06:56:15;50.63;;;23.10;;
82005;SDS011;71529;47.484;19.064;2023-12-20T06:58:45;55.23;;;22.60;;
82005;SDS011;71529;47.484;19.064;2023-12-20T07:01:16;45.47;;;21.33;;
82005;SDS011;71529;47.484;19.064;2023-12-20T07:03:45;40.97;;;21.17;;
82005;SDS011;71529;47.484;19.064;2023-12-20T07:06:13;54.80;;;25.05;;
82005;SDS011;71529;47.484;19.064;2023-12-20T07:08:43;52.57;;;21.80;;
82005;SDS011;71529;47.484;19.064;2023-12-20T07:11:11;52.53;;;21.70;;
82005;SDS011;71529;47.484;19.064;2023-12-20T07:13:40;44.03;;;21.60;;
82005;SDS011;71529;47.484;19.064;2023-12-20T07:16:08;46.08;;;21.70;;
82005;SDS011;71529;47.484;19.064;2023-12-20T07:18:38;49.17;;;23.33;;
82005;SDS011;71529;47.484;19.064;2023-12-20T07:21:06;48.85;;;23.27;;
82005;SDS011;71529;47.484;19.064;2023-12-20T07:23:34;47.42;;;22.65;;
82005;SDS011;71529;47.484;19.064;2023-12-20T07:26:03;49.47;;;22.38;;
82005;SDS011;71529;47.484;19.064;2023-12-20T07:28:31;43.83;;;21.77;;
82005;SDS011;71529;47.484;19.064;2023-12-20T07:31:00;45.75;;;23.30;;
82005;SDS011;71529;47.484;19.064;2023-12-20T07:33:28;45.75;;;21.45;;
82005;SDS011;71529;47.484;19.064;2023-12-20T07:36:06;53.38;;;23.88;;
82005;SDS011;71529;47.484;19.064;2023-12-20T07:38:35;54.38;;;24.15;;
82005;SDS011;71529;47.484;19.064;2023-12-20T07:41:03;43.55;;;23.08;;
82005;SDS011;71529;47.484;19.064;2023-12-20T07:43:31;50.25;;;22.27;;
82005;SDS011;71529;47.484;19.064;2023-12-20T07:46:03;53.72;;;24.90;;
82005;SDS011;71529;47.484;19.064;2023-12-20T07:48:33;48.45;;;25.23;;
82005;SDS011;71529;47.484;19.064;2023-12-20T07:51:02;54.13;;;25.85;;
82005;SDS011;71529;47.484;19.064;2023-12-20T07:53:32;49.75;;;24.63;;
82005;SDS011;71529;47.484;19.064;2023-12-20T07:56:00;49.88;;;24.85;;
82005;SDS011;71529;47.484;19.064;2023-12-20T07:58:29;52.90;;;25.20;;
82005;SDS011;71529;47.484;19.064;2023-12-20T08:01:16;45.30;;;22.92;;
82005;SDS011;71529;47.484;19.064;2023-12-20T08:03:45;51.50;;;25.05;;
82005;SDS011;71529;47.484;19.064;2023-12-20T08:06:14;51.95;;;24.77;;
82005;SDS011;71529;47.484;19.064;2023-12-20T08:08:45;46.30;;;24.38;;
82005;SDS011;71529;47.484;19.064;2023-12-20T08:11:27;44.97;;;23.58;;
82005;SDS011;71529;47.484;19.064;2023-12-20T08:13:55;45.40;;;24.70;;
82005;SDS011;71529;47.484;19.064;2023-12-20T08:16:23;50.67;;;24.30;;
82005;SDS011;71529;47.484;19.064;2023-12-20T08:18:51;49.83;;;25.05;;
82005;SDS011;71529;47.484;19.064;2023-12-20T08:21:20;48.88;;;25.67;;
82005;SDS011;71529;47.484;19.064;2023-12-20T08:23:50;61.80;;;29.55;;
82005;SDS011;71529;47.484;19.064;2023-12-20T08:26:19;49.58;;;24.98;;
82005;SDS011;71529;47.484;19.064;2023-12-20T08:28:49;45.92;;;25.45;;
82005;SDS011;71529;47.484;19.064;2023-12-20T08:31:18;50.50;;;23.95;;
82005;SDS011;71529;47.484;19.064;2023-12-20T08:33:47;56.30;;;24.38;;
82005;SDS011;71529;47.484;19.064;2023-12-20T08:36:16;50.80;;;26.17;;
82005;SDS011;71529;47.484;19.064;2023-12-20T08:38:46;60.40;;;28.05;;
82005;SDS011;71529;47.484;19.064;2023-12-20T08:41:16;47.90;;;24.23;;
82005;SDS011;71529;47.484;19.064;2023-12-20T08:43:45;54.40;;;26.50;;
82005;SDS011;71529;47.484;19.064;2023-12-20T08:46:13;52.95;;;26.40;;
82005;SDS011;71529;47.484;19.064;2023-12-20T08:48:42;61.53;;;26.40;;
82005;SDS011;71529;47.484;19.064;2023-12-20T08:51:12;52.28;;;26.83;;
82005;SDS011;71529;47.484;19.064;2023-12-20T08:53:41;56.13;;;28.67;;
82005;SDS011;71529;47.484;19.064;2023-12-20T08:56:12;55.35;;;28.73;;
82005;SDS011;71529;47.484;19.064;2023-12-20T08:58:41;56.35;;;28.75;;
82005;SDS011;71529;47.484;19.064;2023-12-20T09:01:09;55.83;;;26.42;;
82005;SDS011;71529;47.484;19.064;2023-12-20T09:03:38;54.85;;;28.30;;
82005;SDS011;71529;47.484;19.064;2023-12-20T09:06:06;51.00;;;26.33;;
82005;SDS011;71529;47.484;19.064;2023-12-20T09:08:35;58.58;;;30.05;;
82005;SDS011;71529;47.484;19.064;2023-12-20T09:11:03;53.60;;;27.40;;
82005;SDS011;71529;47.484;19.064;2023-12-20T09:13:32;58.13;;;28.30;;
82005;SDS011;71529;47.484;19.064;2023-12-20T09:16:02;59.42;;;28.38;;
82005;SDS011;71529;47.484;19.064;2023-12-20T09:18:31;62.95;;;29.13;;
82005;SDS011;71529;47.484;19.064;2023-12-20T09:20:59;63.53;;;29.35;;
82005;SDS011;71529;47.484;19.064;2023-12-20T09:23:27;60.30;;;31.58;;
82005;SDS011;71529;47.484;19.064;2023-12-20T09:25:55;67.20;;;31.20;;
82005;SDS011;71529;47.484;19.064;2023-12-20T09:28:23;62.25;;;31.35;;
82005;SDS011;71529;47.484;19.064;2023-12-20T09:30:52;59.75;;;28.20;;
82005;SDS011;71529;47.484;19.064;2023-12-20T09:33:22;59.00;;;28.88;;
82005;SDS011;71529;47.484;19.064;2023-12-20T09:35:51;59.80;;;29.10;;
82005;SDS011;71529;47.484;19.064;2023-12-20T09:38:20;63.92;;;28.08;;
82005;SDS011;71529;47.484;19.064;2023-12-20T09:40:49;63.42;;;29.35;;
82005;SDS011;71529;47.484;19.064;2023-12-20T09:43:18;63.60;;;29.73;;
82005;SDS011;71529;47.484;19.064;2023-12-20T09:45:48;61.92;;;29.75;;
82005;SDS011;71529;47.484;19.064;2023-12-20T09:48:18;62.67;;;31.70;;
82005;SDS011;71529;47.484;19.064;2023-12-20T09:50:49;61.70;;;30.27;;
82005;SDS011;71529;47.484;19.064;2023-12-20T09:53:19;58.72;;;29.50;;
82005;SDS011;71529;47.484;19.064;2023-12-20T09:55:57;60.63;;;30.90;;
82005;SDS011;71529;47.484;19.064;2023-12-20T09:58:27;62.42;;;30.02;;
82005;SDS011;71529;47.484;19.064;2023-12-20T10:00:56;68.03;;;31.30;;
82005;SDS011;71529;47.484;19.064;2023-12-20T10:03:25;67.65;;;29.65;;
82005;SDS011;71529;47.484;19.064;2023-12-20T10:05:56;71.53;;;33.10;;
82005;SDS011;71529;47.484;19.064;2023-12-20T10:08:25;61.63;;;31.10;;
82005;SDS011;71529;47.484;19.064;2023-12-20T10:10:54;70.47;;;34.25;;
82005;SDS011;71529;47.484;19.064;2023-12-20T10:13:24;65.38;;;31.92;;
82005;SDS011;71529;47.484;19.064;2023-12-20T10:15:54;67.80;;;31.02;;
82005;SDS011;71529;47.484;19.064;2023-12-20T10:18:22;73.05;;;33.38;;
82005;SDS011;71529;47.484;19.064;2023-12-20T10:21:04;72.65;;;33.70;;
82005;SDS011;71529;47.484;19.064;2023-12-20T10:23:34;76.03;;;32.38;;
82005;SDS011;71529;47.484;19.064;2023-12-20T10:26:02;64.97;;;32.13;;
82005;SDS011;71529;47.484;19.064;2023-12-20T10:28:32;67.18;;;31.02;;
82005;SDS011;71529;47.484;19.064;2023-12-20T10:31:02;68.90;;;32.95;;
82005;SDS011;71529;47.484;19.064;2023-12-20T10:33:31;75.30;;;34.42;;
82005;SDS011;71529;47.484;19.064;2023-12-20T10:36:00;60.20;;;31.85;;
82005;SDS011;71529;47.484;19.064;2023-12-20T10:38:31;78.05;;;33.90;;
82005;SDS011;71529;47.484;19.064;2023-12-20T10:41:00;78.25;;;35.88;;
82005;SDS011;71529;47.484;19.064;2023-12-20T10:43:32;70.18;;;34.80;;
82005;SDS011;71529;47.484;19.064;2023-12-20T10:46:02;71.70;;;35.50;;
82005;SDS011;71529;47.484;19.064;2023-12-20T10:48:31;64.57;;;31.92;;
82005;SDS011;71529;47.484;19.064;2023-12-20T10:51:01;67.50;;;32.90;;
82005;SDS011;71529;47.484;19.064;2023-12-20T10:53:31;64.82;;;32.83;;
82005;SDS011;71529;47.484;19.064;2023-12-20T10:56:03;73.00;;;34.30;;
82005;SDS011;71529;47.484;19.064;2023-12-20T10:58:33;76.38;;;34.40;;
82005;SDS011;71529;47.484;19.064;2023-12-20T11:01:07;72.25;;;33.03;;
82005;SDS011;71529;47.484;19.064;2023-12-20T11:03:36;70.75;;;32.85;;
82005;SDS011;71529;47.484;19.064;2023-12-20T11:06:11;67.43;;;32.95;;
82005;SDS011;71529;47.484;19.064;2023-12-20T11:08:50;64.60;;;30.75;;
82005;SDS011;71529;47.484;19.064;2023-12-20T11:11:37;66.15;;;32.25;;
82005;SDS011;71529;47.484;19.064;2023-12-20T11:14:14;68.22;;;31.63;;
82005;SDS011;71529;47.484;19.064;2023-12-20T11:16:44;70.15;;;34.15;;
82005;SDS011;71529;47.484;19.064;2023-12-20T11:19:21;61.28;;;30.83;;
82005;SDS011;71529;47.484;19.064;2023-12-20T11:21:49;56.63;;;31.45;;
82005;SDS011;71529;47.484;19.064;2023-12-20T11:24:22;70.32;;;34.22;;
82005;SDS011;71529;47.484;19.064;2023-12-20T11:26:51;64.53;;;32.72;;
82005;SDS011;71529;47.484;19.064;2023-12-20T11:29:33;70.87;;;34.83;;
82005;SDS011;71529;47.484;19.064;2023-12-20T11:32:03;70.13;;;33.78;;
82005;SDS011;71529;47.484;19.064;2023-12-20T11:34:52;68.90;;;35.67;;
82005;SDS011;71529;47.484;19.064;2023-12-20T11:37:27;62.90;;;34.05;;
82005;SDS011;71529;47.484;19.064;2023-12-20T11:40:02;68.03;;;35.85;;
82005;SDS011;71529;47.484;19.064;2023-12-20T11:42:32;70.30;;;35.58;;
82005;SDS011;71529;47.484;19.064;2023-12-20T11:45:01;62.95;;;35.92;;
82005;SDS011;71529;47.484;19.064;2023-12-20T11:47:31;73.07;;;36.35;;
82005;SDS011;71529;47.484;19.064;2023-12-20T11:49:59;90.40;;;44.58;;
82005;SDS011;71529;47.484;19.064;2023-12-20T11:52:30;75.68;;;40.83;;
82005;SDS011;71529;47.484;19.064;2023-12-20T11:55:00;94.40;;;47.90;;
82005;SDS011;71529;47.484;19.064;2023-12-20T11:57:29;71.97;;;40.92;;
82005;SDS011;71529;47.484;19.064;2023-12-20T11:59:57;90.68;;;43.00;;
82005;SDS011;71529;47.484;19.064;2023-12-20T12:02:26;86.50;;;42.13;;
82005;SDS011;71529;47.484;19.064;2023-12-20T12:04:55;81.57;;;40.95;;
82005;SDS011;71529;47.484;19.064;2023-12-20T12:07:25;81.88;;;41.80;;
82005;SDS011;71529;47.484;19.064;2023-12-20T12:09:53;86.28;;;43.03;;
82005;SDS011;71529;47.484;19.064;2023-12-20T12:12:23;78.95;;;43.15;;
82005;SDS011;71529;47.484;19.064;2023-12-20T12:14:52;88.32;;;43.15;;
82005;SDS011;71529;47.484;19.064;2023-12-20T12:17:21;97.60;;;42.92;;
82005;SDS011;71529;47.484;19.064;2023-12-20T12:19:49;79.22;;;43.05;;
82005;SDS011;71529;47.484;19.064;2023-12-20T12:22:17;76.45;;;40.20;;
82005;SDS011;71529;47.484;19.064;2023-12-20T12:24:47;86.13;;;42.17;;
82005;SDS011;71529;47.484;19.064;2023-12-20T12:27:16;80.68;;;39.95;;
82005;SDS011;71529;47.484;19.064;2023-12-20T12:32:39;53.00;;;32.63;;
82005;SDS011;71529;47.484;19.064;2023-12-20T12:35:08;57.45;;;31.58;;
82005;SDS011;71529;47.484;19.064;2023-12-20T12:37:37;43.90;;;24.55;;
82005;SDS011;71529;47.484;19.064;2023-12-20T12:40:09;37.45;;;22.08;;
82005;SDS011;71529;47.484;19.064;2023-12-20T12:42:38;32.47;;;17.77;;
82005;SDS011;71529;47.484;19.064;2023-12-20T12:45:07;26.15;;;14.07;;
82005;SDS011;71529;47.484;19.064;2023-12-20T12:47:36;14.32;;;9.52;;
82005;SDS011;71529;47.484;19.064;2023-12-20T12:50:06;19.92;;;10.35;;
82005;SDS011;71529;47.484;19.064;2023-12-20T12:52:35;20.10;;;12.63;;
82005;SDS011;71529;47.484;19.064;2023-12-20T12:55:04;18.48;;;12.98;;
82005;SDS011;71529;47.484;19.064;2023-12-20T12:57:33;14.90;;;11.18;;
82005;SDS011;71529;47.484;19.064;2023-12-20T13:00:01;16.92;;;11.60;;
82005;SDS011;71529;47.484;19.064;2023-12-20T13:02:30;19.73;;;12.82;;
82005;SDS011;71529;47.484;19.064;2023-12-20T13:04:59;16.27;;;10.43;;
82005;SDS011;71529;47.484;19.064;2023-12-20T13:07:30;15.88;;;10.48;;
82005;SDS011;71529;47.484;19.064;2023-12-20T13:09:59;16.35;;;10.13;;
82005;SDS011;71529;47.484;19.064;2023-12-20T13:12:28;21.63;;;13.80;;
82005;SDS011;71529;47.484;19.064;2023-12-20T13:14:56;21.20;;;13.60;;
82005;SDS011;71529;47.484;19.064;2023-12-20T13:17:24;19.15;;;12.38;;
82005;SDS011;71529;47.484;19.064;2023-12-20T13:19:56;19.35;;;11.88;;
82005;SDS011;71529;47.484;19.064;2023-12-20T13:22:24;23.45;;;10.88;;
82005;SDS011;71529;47.484;19.064;2023-12-20T13:24:53;17.58;;;12.20;;
82005;SDS011;71529;47.484;19.064;2023-12-20T13:27:21;19.98;;;12.27;;
82005;SDS011;71529;47.484;19.064;2023-12-20T13:29:50;14.77;;;10.48;;
82005;SDS011;71529;47.484;19.064;2023-12-20T13:32:19;14.90;;;10.23;;
82005;SDS011;71529;47.484;19.064;2023-12-20T13:34:47;15.00;;;10.68;;
82005;SDS011;71529;47.484;19.064;2023-12-20T13:37:16;15.45;;;9.85;;
82005;SDS011;71529;47.484;19.064;2023-12-20T13:39:45;12.35;;;8.93;;
82005;SDS011;71529;47.484;19.064;2023-12-20T13:42:15;14.35;;;9.27;;
82005;SDS011;71529;47.484;19.064;2023-12-20T13:44:43;18.67;;;9.05;;
82005;SDS011;71529;47.484;19.064;2023-12-20T13:47:11;13.77;;;9.10;;
82005;SDS011;71529;47.484;19.064;2023-12-20T13:49:40;11.32;;;8.50;;
82005;SDS011;71529;47.484;19.064;2023-12-20T13:52:08;13.25;;;9.10;;
82005;SDS011;71529;47.484;19.064;2023-12-20T13:54:37;16.08;;;9.45;;
82005;SDS011;71529;47.484;19.064;2023-12-20T13:57:05;12.48;;;9.20;;
82005;SDS011;71529;47.484;19.064;2023-12-20T13:59:49;13.27;;;8.80;;
82005;SDS011;71529;47.484;19.064;2023-12-20T14:02:17;11.93;;;7.50;;
82005;SDS011;71529;47.484;19.064;2023-12-20T14:04:45;11.75;;;8.10;;
82005;SDS011;71529;47.484;19.064;2023-12-20T14:07:13;13.27;;;8.25;;
82005;SDS011;71529;47.484;19.064;2023-12-20T14:09:41;13.13;;;8.25;;
82005;SDS011;71529;47.484;19.064;2023-12-20T14:12:13;10.68;;;7.78;;
82005;SDS011;71529;47.484;19.064;2023-12-20T14:14:41;11.23;;;7.75;;
82005;SDS011;71529;47.484;19.064;2023-12-20T14:17:13;9.68;;;7.82;;
82005;SDS011;71529;47.484;19.064;2023-12-20T14:19:41;10.80;;;7.65;;
82005;SDS011;71529;47.484;19.064;2023-12-20T14:22:09;10.88;;;8.25;;
82005;SDS011;71529;47.484;19.064;2023-12-20T14:24:37;11.15;;;8.55;;